createdAt,value
2023-03-11T00:01:20.556Z,3.35
2023-03-11T00:03:49.344Z,3.17
2023-03-11T00:06:16.761Z,3.95
2023-03-11T00:08:44.054Z,3.40
2023-03-11T00:11:11.428Z,3.55
2023-03-11T00:13:39.724Z,4.00
2023-03-11T00:16:07.379Z,3.22
2023-03-11T00:18:34.706Z,3.08
2023-03-11T00:21:02.630Z,3.35
2023-03-11T00:23:30.149Z,4.88
2023-03-11T00:26:00.038Z,3.00
2023-03-11T00:28:27.673Z,3.20
2023-03-11T00:30:55.420Z,3.17
2023-03-11T00:33:22.775Z,2.70
2023-03-11T00:35:50.952Z,3.25
2023-03-11T00:38:18.626Z,3.63
2023-03-11T00:40:46.941Z,4.32
2023-03-11T00:43:14.668Z,3.83
2023-03-11T00:45:43.506Z,3.67
2023-03-11T00:48:10.778Z,3.28
2023-03-11T00:50:38.520Z,2.92
2023-03-11T00:53:06.609Z,3.88
2023-03-11T00:55:34.838Z,3.72
2023-03-11T00:58:03.206Z,2.80
2023-03-11T01:00:30.913Z,2.83
2023-03-11T01:02:58.677Z,2.80
2023-03-11T01:05:28.012Z,2.85
2023-03-11T01:07:55.353Z,3.72
2023-03-11T01:10:22.609Z,3.67
2023-03-11T01:12:49.829Z,2.92
2023-03-11T01:15:19.159Z,3.30
2023-03-11T01:17:46.531Z,3.45
2023-03-11T01:20:13.849Z,3.10
2023-03-11T01:22:41.241Z,3.05
2023-03-11T01:25:10.026Z,3.28
2023-03-11T01:27:37.226Z,2.63
2023-03-11T01:30:04.649Z,3.40
2023-03-11T01:32:32.031Z,3.13
2023-03-11T01:34:59.511Z,3.42
2023-03-11T01:37:26.849Z,2.85
2023-03-11T01:39:54.119Z,3.53
2023-03-11T01:42:21.443Z,4.05
2023-03-11T01:44:48.680Z,3.53
2023-03-11T01:47:15.917Z,3.00
2023-03-11T01:49:43.162Z,3.13
2023-03-11T01:52:10.630Z,2.80
2023-03-11T01:54:40.207Z,2.85
2023-03-11T01:57:08.780Z,2.85
2023-03-11T01:59:40.289Z,3.50
2023-03-11T02:02:10.662Z,3.10
2023-03-11T02:04:38.328Z,3.60
2023-03-11T02:07:06.380Z,3.85
2023-03-11T02:09:33.663Z,3.80
2023-03-11T02:12:00.990Z,3.97
2023-03-11T02:14:29.370Z,3.30
2023-03-11T02:16:58.164Z,3.83
2023-03-11T02:19:33.791Z,3.58
2023-03-11T02:22:01.518Z,3.63
2023-03-11T02:24:35.888Z,3.90
2023-03-11T02:27:06.325Z,3.75
2023-03-11T02:29:34.456Z,3.75
2023-03-11T02:32:08.981Z,3.92
2023-03-11T02:34:38.263Z,4.07
2023-03-11T02:37:06.607Z,3.78
2023-03-11T02:39:35.100Z,4.18
2023-03-11T02:42:05.754Z,4.30
2023-03-11T02:44:33.065Z,4.28
2023-03-11T02:47:00.951Z,4.43
2023-03-11T02:49:28.506Z,5.20
2023-03-11T02:51:55.841Z,4.80
2023-03-11T02:54:23.151Z,4.82
2023-03-11T02:56:50.490Z,4.20
2023-03-11T02:59:17.744Z,5.13
2023-03-11T03:01:45.425Z,4.32
2023-03-11T03:04:12.684Z,4.53
2023-03-11T03:06:40.108Z,5.28
2023-03-11T03:09:07.472Z,4.70
2023-03-11T03:11:34.806Z,5.15
2023-03-11T03:14:02.096Z,5.47
2023-03-11T03:16:29.453Z,4.82
2023-03-11T03:18:56.901Z,5.10
2023-03-11T03:21:24.224Z,4.82
2023-03-11T03:23:51.509Z,5.53
2023-03-11T03:26:18.783Z,5.95
2023-03-11T03:28:46.024Z,6.45
2023-03-11T03:31:13.280Z,5.07
2023-03-11T03:33:40.715Z,5.35
2023-03-11T03:36:08.884Z,4.70
2023-03-11T03:38:36.240Z,5.00
2023-03-11T03:41:03.680Z,4.50
2023-03-11T03:43:32.386Z,4.28
2023-03-11T03:46:04.537Z,4.63
2023-03-11T03:48:32.002Z,4.93
2023-03-11T03:51:03.454Z,4.18
2023-03-11T03:53:30.688Z,4.53
2023-03-11T03:55:58.040Z,5.20
2023-03-11T03:58:25.310Z,4.55
2023-03-11T04:00:56.301Z,4.90
2023-03-11T04:03:23.972Z,5.35
2023-03-11T04:05:51.422Z,5.15
2023-03-11T04:08:18.988Z,4.80
2023-03-11T04:10:46.545Z,5.05
2023-03-11T04:13:13.865Z,5.38
2023-03-11T04:15:41.369Z,5.15
2023-03-11T04:18:08.613Z,5.07
2023-03-11T04:20:35.852Z,5.38
2023-03-11T04:23:03.099Z,5.65
2023-03-11T04:25:30.552Z,5.80
2023-03-11T04:27:57.818Z,6.30
2023-03-11T04:30:25.056Z,5.95
2023-03-11T04:32:52.290Z,5.38
2023-03-11T04:35:19.556Z,6.78
2023-03-11T04:37:46.832Z,5.93
2023-03-11T04:40:15.144Z,6.28
2023-03-11T04:42:42.477Z,5.53
2023-03-11T04:45:11.283Z,6.07
2023-03-11T04:47:38.740Z,6.05
2023-03-11T04:50:06.509Z,6.15
2023-03-11T04:52:33.821Z,6.82
2023-03-11T04:55:01.133Z,7.30
2023-03-11T04:57:28.492Z,7.28
2023-03-11T04:59:55.740Z,6.97
2023-03-11T05:02:22.970Z,6.85
2023-03-11T05:04:50.224Z,6.60
2023-03-11T05:07:17.569Z,7.55
2023-03-11T05:09:44.721Z,6.50
2023-03-11T05:12:13.073Z,7.18
2023-03-11T05:14:40.800Z,5.93
2023-03-11T05:17:10.131Z,6.55
2023-03-11T05:19:37.336Z,5.63
2023-03-11T05:22:05.086Z,6.30
2023-03-11T05:24:32.418Z,5.78
2023-03-11T05:26:59.751Z,5.70
2023-03-11T05:29:26.995Z,4.80
2023-03-11T05:31:54.819Z,5.13
2023-03-11T05:34:22.261Z,4.63
2023-03-11T05:36:49.591Z,5.03
2023-03-11T05:39:17.314Z,5.28
2023-03-11T05:41:44.536Z,4.65
2023-03-11T05:44:11.795Z,4.15
2023-03-11T05:46:39.156Z,3.50
2023-03-11T05:49:06.431Z,4.05
2023-03-11T05:51:33.707Z,4.22
2023-03-11T05:54:01.139Z,4.03
2023-03-11T05:56:28.289Z,4.53
2023-03-11T05:58:58.342Z,4.38
2023-03-11T06:01:25.679Z,4.35
2023-03-11T06:03:53.000Z,3.80
2023-03-11T06:06:20.724Z,4.45
2023-03-11T06:08:50.167Z,4.78
2023-03-11T06:11:17.897Z,6.13
2023-03-11T06:13:45.133Z,6.35
2023-03-11T06:16:12.617Z,6.00
2023-03-11T06:18:39.854Z,7.00
2023-03-11T06:21:08.551Z,4.65
2023-03-11T06:23:35.787Z,4.00
2023-03-11T06:26:04.471Z,4.70
2023-03-11T06:28:32.126Z,4.00
2023-03-11T06:31:07.485Z,4.15
2023-03-11T06:33:34.715Z,3.65
2023-03-11T06:36:02.558Z,3.78
2023-03-11T06:38:30.233Z,4.55
2023-03-11T06:41:01.558Z,4.35
2023-03-11T06:43:28.904Z,4.28
2023-03-11T06:45:56.102Z,4.47
2023-03-11T06:48:23.458Z,3.90
2023-03-11T06:50:56.857Z,4.25
2023-03-11T06:53:24.404Z,3.50
2023-03-11T06:56:06.935Z,4.10
2023-03-11T06:58:35.018Z,3.23
2023-03-11T07:01:02.886Z,4.10
2023-03-11T07:03:30.158Z,3.30
2023-03-11T07:05:57.825Z,3.00
2023-03-11T07:08:25.022Z,3.55
2023-03-11T07:11:05.954Z,3.35
2023-03-11T07:13:33.366Z,3.30
2023-03-11T07:16:05.335Z,3.15
2023-03-11T07:18:33.005Z,5.07
2023-03-11T07:21:01.808Z,3.80
2023-03-11T07:23:29.136Z,4.20
2023-03-11T07:25:56.389Z,3.75
2023-03-11T07:28:24.251Z,4.60
2023-03-11T07:30:51.821Z,3.55
2023-03-11T07:33:19.762Z,4.00
2023-03-11T07:35:49.329Z,3.35
2023-03-11T07:38:17.933Z,3.70
2023-03-11T07:40:45.601Z,3.80
2023-03-11T07:43:12.764Z,3.15
2023-03-11T07:45:39.991Z,3.05
2023-03-11T07:48:07.399Z,3.72
2023-03-11T07:50:34.682Z,3.08
2023-03-11T07:53:01.881Z,3.50
2023-03-11T07:55:29.144Z,3.33
2023-03-11T07:57:56.340Z,4.07
2023-03-11T08:00:23.645Z,3.10
2023-03-11T08:02:50.844Z,3.08
2023-03-11T08:05:20.800Z,2.60
2023-03-11T08:07:48.028Z,2.92
2023-03-11T08:10:15.275Z,4.53
2023-03-11T08:12:42.452Z,2.67
2023-03-11T08:15:10.037Z,3.00
2023-03-11T08:17:37.215Z,3.22
2023-03-11T08:20:05.160Z,3.28
2023-03-11T08:22:32.338Z,2.90
2023-03-11T08:24:59.523Z,3.55
2023-03-11T08:27:28.575Z,2.85
2023-03-11T08:29:55.740Z,3.70
2023-03-11T08:32:22.962Z,3.10
2023-03-11T08:34:50.196Z,3.65
2023-03-11T08:37:17.435Z,3.05
2023-03-11T08:39:44.742Z,3.63
2023-03-11T08:42:11.999Z,3.22
2023-03-11T08:44:39.822Z,2.97
2023-03-11T08:47:07.042Z,3.95
2023-03-11T08:49:34.235Z,2.92
2023-03-11T08:52:02.193Z,3.30
2023-03-11T08:54:29.601Z,3.40
2023-03-11T08:56:56.935Z,3.55
2023-03-11T08:59:24.109Z,3.20
2023-03-11T09:01:51.249Z,3.70
2023-03-11T09:04:18.468Z,3.97
2023-03-11T09:06:45.721Z,3.42
2023-03-11T09:09:13.089Z,3.13
2023-03-11T09:11:41.692Z,2.70
2023-03-11T09:14:08.862Z,2.75
2023-03-11T09:16:36.149Z,2.85
2023-03-11T09:19:07.015Z,3.30
2023-03-11T09:21:34.745Z,3.10
2023-03-11T09:24:04.351Z,3.30
2023-03-11T09:26:32.054Z,4.00
2023-03-11T09:28:59.280Z,3.05
2023-03-11T09:31:26.537Z,3.45
2023-03-11T09:33:55.524Z,3.05
2023-03-11T09:36:23.346Z,3.05
2023-03-11T09:38:50.520Z,3.30
2023-03-11T09:41:17.752Z,2.80
2023-03-11T09:43:47.990Z,2.58
2023-03-11T09:46:27.642Z,2.65
2023-03-11T09:49:00.598Z,2.97
2023-03-11T09:51:33.751Z,2.85
2023-03-11T09:56:28.219Z,2.60
2023-03-11T09:59:21.754Z,2.10
2023-03-11T10:01:50.746Z,2.97
2023-03-11T10:04:27.182Z,2.50
2023-03-11T10:06:55.186Z,2.92
2023-03-11T10:09:41.056Z,3.08
2023-03-11T10:12:27.075Z,2.40
2023-03-11T10:15:07.027Z,2.22
2023-03-11T10:17:53.086Z,2.55
2023-03-11T10:20:39.003Z,3.15
2023-03-11T10:23:16.374Z,2.75
2023-03-11T10:25:43.555Z,3.47
2023-03-11T10:28:14.821Z,2.80
2023-03-11T10:30:45.840Z,3.85
2023-03-11T10:33:18.388Z,2.53
2023-03-11T10:35:47.443Z,2.20
2023-03-11T10:38:16.168Z,2.33
2023-03-11T10:40:44.738Z,2.67
2023-03-11T10:43:30.772Z,2.53
2023-03-11T10:45:58.450Z,3.40
2023-03-11T10:48:26.439Z,2.80
2023-03-11T10:50:56.670Z,2.53
2023-03-11T10:53:25.108Z,3.33
2023-03-11T10:55:53.642Z,2.30
2023-03-11T10:58:25.855Z,2.60
2023-03-11T11:01:11.822Z,2.23
2023-03-11T11:03:42.189Z,2.45
2023-03-11T11:06:19.328Z,2.65
2023-03-11T11:08:46.916Z,2.53
2023-03-11T11:11:24.654Z,2.88
2023-03-11T11:13:59.171Z,2.65
2023-03-11T11:16:26.746Z,3.15
2023-03-11T11:19:05.003Z,3.03
2023-03-11T11:21:33.902Z,2.85
2023-03-11T11:24:19.632Z,2.45
2023-03-11T11:27:06.400Z,2.80
2023-03-11T11:29:34.742Z,2.33
2023-03-11T11:32:24.298Z,2.92
2023-03-11T11:35:01.747Z,2.70
2023-03-11T11:37:33.401Z,2.38
2023-03-11T11:40:02.480Z,1.67
2023-03-11T11:42:30.729Z,2.05
2023-03-11T11:45:01.490Z,2.35
2023-03-11T11:47:31.054Z,1.80
2023-03-11T11:50:00.767Z,2.00
2023-03-11T11:52:37.924Z,1.80
2023-03-11T11:55:07.617Z,2.00
2023-03-11T11:57:35.023Z,2.30
2023-03-11T12:00:05.753Z,1.70
2023-03-11T12:02:35.853Z,1.77
2023-03-11T12:05:20.686Z,2.40
2023-03-11T12:08:03.121Z,2.03
2023-03-11T12:10:35.692Z,1.75
2023-03-11T12:13:18.147Z,1.83
2023-03-11T12:15:59.491Z,2.28
2023-03-11T12:18:42.104Z,1.73
2023-03-11T12:21:31.466Z,1.70
2023-03-11T12:24:12.709Z,2.15
2023-03-11T12:26:41.553Z,2.28
2023-03-11T12:29:14.361Z,1.65
2023-03-11T12:31:43.981Z,2.15
2023-03-11T12:34:13.043Z,2.00
2023-03-11T12:36:41.712Z,1.77
2023-03-11T12:39:20.279Z,1.83
2023-03-11T12:41:47.619Z,1.83
2023-03-11T12:44:25.903Z,2.55
2023-03-11T12:46:59.402Z,2.38
2023-03-11T12:49:30.794Z,1.70
2023-03-11T12:52:02.960Z,1.90
2023-03-11T12:54:34.482Z,1.90
2023-03-11T12:57:01.743Z,2.45
2023-03-11T12:59:32.060Z,1.88
2023-03-11T13:02:02.509Z,2.00
2023-03-11T13:04:42.478Z,1.80
2023-03-11T13:07:18.751Z,1.60
2023-03-11T13:09:46.248Z,2.65
2023-03-11T13:12:32.704Z,1.85
2023-03-11T13:15:19.321Z,1.85
2023-03-11T13:22:05.263Z,2.15
2023-03-11T13:24:42.254Z,1.50
2023-03-11T13:27:31.520Z,1.95
2023-03-11T13:30:05.280Z,1.70
2023-03-11T13:32:32.954Z,1.98
2023-03-11T13:35:09.689Z,1.90
2023-03-11T13:37:44.611Z,2.17
2023-03-11T13:40:14.146Z,2.25
2023-03-11T13:42:46.479Z,1.60
2023-03-11T13:45:23.060Z,1.67
2023-03-11T13:47:50.719Z,1.60
2023-03-11T13:50:48.241Z,1.70
2023-03-11T13:53:21.766Z,1.65
2023-03-11T13:55:54.524Z,2.17
2023-03-11T13:58:22.960Z,1.73
2023-03-11T14:00:54.075Z,2.08
2023-03-11T14:03:27.106Z,1.98
2023-03-11T14:08:40.352Z,2.03
2023-03-11T14:11:10.652Z,2.00
2023-03-11T14:13:50.537Z,1.83
2023-03-11T14:16:29.179Z,1.60
2023-03-11T14:19:04.439Z,2.13
2023-03-11T14:21:32.074Z,2.33
2023-03-11T14:24:00.364Z,2.13
2023-03-11T14:26:31.737Z,1.70
2023-03-11T14:29:07.983Z,1.90
2023-03-11T14:31:35.329Z,2.17
2023-03-11T14:34:04.868Z,2.03
2023-03-11T14:36:40.611Z,2.30
2023-03-11T14:39:22.685Z,2.28
2023-03-11T14:41:51.777Z,1.67
2023-03-11T14:44:19.246Z,2.35
2023-03-11T14:46:47.355Z,1.70
2023-03-11T14:49:19.042Z,1.98
2023-03-11T14:51:46.543Z,1.90
2023-03-11T14:54:22.298Z,2.15
2023-03-11T14:57:02.558Z,1.50
2023-03-11T14:59:35.144Z,2.20
2023-03-11T15:02:10.453Z,2.08
2023-03-11T15:04:44.701Z,1.98
2023-03-11T15:07:21.610Z,2.00
2023-03-11T15:09:49.100Z,2.05
2023-03-11T15:12:56.259Z,2.08
2023-03-11T15:15:25.400Z,2.42
2023-03-11T15:17:53.378Z,1.83
2023-03-11T15:20:24.657Z,1.85
2023-03-11T15:23:01.492Z,2.10
2023-03-11T15:25:30.494Z,1.83
2023-03-11T15:27:57.827Z,2.45
2023-03-11T15:30:25.178Z,2.15
2023-03-11T15:32:52.786Z,2.13
2023-03-11T15:35:21.977Z,1.77
2023-03-11T15:37:50.431Z,2.15
2023-03-11T15:40:26.173Z,2.10
2023-03-11T15:43:28.513Z,2.25
2023-03-11T15:45:57.687Z,2.13
2023-03-11T15:48:25.366Z,2.28
2023-03-11T15:50:54.872Z,2.17
2023-03-11T15:53:23.280Z,3.20
2023-03-11T15:55:53.473Z,2.50
2023-03-11T15:58:21.680Z,2.22
2023-03-11T16:00:51.832Z,1.92
2023-03-11T16:03:19.652Z,2.30
2023-03-11T16:05:47.715Z,2.15
2023-03-11T16:08:15.348Z,2.22
2023-03-11T16:10:43.149Z,2.33
2023-03-11T16:13:17.868Z,1.88
2023-03-11T16:15:48.164Z,2.15
2023-03-11T16:18:16.077Z,2.75
2023-03-11T16:20:51.116Z,2.33
2023-03-11T16:23:23.233Z,2.80
2023-03-11T16:25:51.118Z,2.77
2023-03-11T16:28:20.375Z,2.42
2023-03-11T16:30:50.548Z,2.90
2023-03-11T16:33:20.031Z,2.42
2023-03-11T16:35:47.710Z,2.70
2023-03-11T16:38:15.481Z,2.40
2023-03-11T16:40:46.791Z,2.80
2023-03-11T16:43:14.844Z,2.33
2023-03-11T16:45:42.229Z,3.10
2023-03-11T16:48:09.549Z,3.30
2023-03-11T16:50:37.690Z,2.95
2023-03-11T16:53:05.188Z,2.60
2023-03-11T16:55:32.414Z,2.33
2023-03-11T16:57:59.634Z,2.30
2023-03-11T17:00:26.975Z,2.50
2023-03-11T17:02:54.441Z,2.55
2023-03-11T17:05:22.087Z,1.95
2023-03-11T17:07:49.421Z,2.40
2023-03-11T17:10:16.856Z,2.38
2023-03-11T17:12:44.171Z,2.90
2023-03-11T17:15:11.774Z,3.35
2023-03-11T17:17:39.024Z,3.30
2023-03-11T17:20:07.124Z,2.92
2023-03-11T17:22:34.996Z,2.65
2023-03-11T17:25:02.926Z,2.88
2023-03-11T17:27:33.679Z,3.00
2023-03-11T17:30:01.541Z,3.15
2023-03-11T17:32:29.556Z,2.78
2023-03-11T17:34:56.857Z,3.28
2023-03-11T17:37:24.170Z,3.50
2023-03-11T17:39:51.450Z,4.57
2023-03-11T17:42:18.807Z,5.90
2023-03-11T17:44:51.793Z,4.20
2023-03-11T17:47:20.129Z,3.65
2023-03-11T17:49:48.079Z,3.72
2023-03-11T17:52:15.702Z,3.42
2023-03-11T17:54:42.959Z,4.15
2023-03-11T17:57:10.274Z,3.83
2023-03-11T17:59:37.580Z,6.25
2023-03-11T18:02:04.874Z,5.63
2023-03-11T18:04:32.173Z,3.95
2023-03-11T18:07:00.604Z,3.53
2023-03-11T18:09:28.049Z,3.75
2023-03-11T18:11:55.333Z,4.13
2023-03-11T18:14:22.588Z,4.53
2023-03-11T18:16:49.820Z,4.10
2023-03-11T18:19:17.124Z,3.47
2023-03-11T18:21:44.644Z,3.47
2023-03-11T18:24:11.896Z,3.45
2023-03-11T18:26:39.205Z,3.17
2023-03-11T18:29:06.576Z,2.75
2023-03-11T18:31:33.991Z,4.03
2023-03-11T18:34:02.901Z,3.42
2023-03-11T18:36:32.137Z,2.95
2023-03-11T18:38:59.940Z,2.78
2023-03-11T18:41:27.987Z,2.70
2023-03-11T18:43:57.485Z,3.08
2023-03-11T18:46:25.620Z,3.15
2023-03-11T18:49:00.303Z,3.83
2023-03-11T18:51:28.309Z,3.42
2023-03-11T18:53:55.540Z,4.70
2023-03-11T18:56:22.778Z,3.95
2023-03-11T18:58:50.093Z,4.80
2023-03-11T19:01:21.694Z,5.32
2023-03-11T19:03:53.891Z,4.85
2023-03-11T19:06:21.742Z,5.28
2023-03-11T19:08:49.289Z,5.28
2023-03-11T19:11:18.369Z,6.25
2023-03-11T19:13:47.495Z,4.97
2023-03-11T19:16:16.323Z,6.90
2023-03-11T19:18:43.678Z,3.42
2023-03-11T19:21:12.387Z,3.53
2023-03-11T19:23:40.074Z,3.78
2023-03-11T19:26:07.457Z,3.53
2023-03-11T19:28:34.835Z,3.05
2023-03-11T19:31:02.599Z,3.80
2023-03-11T19:33:29.949Z,3.30
2023-03-11T19:35:58.336Z,3.60
2023-03-11T19:38:26.257Z,2.85
2023-03-11T19:41:14.522Z,2.80
2023-03-11T19:43:42.439Z,3.40
2023-03-11T19:46:11.259Z,3.63
2023-03-11T19:48:38.699Z,3.72
2023-03-11T19:51:07.443Z,4.72
2023-03-11T19:53:35.824Z,4.55
2023-03-11T19:56:04.757Z,3.88
2023-03-11T19:58:32.324Z,4.25
2023-03-11T20:01:00.162Z,4.25
2023-03-11T20:03:27.556Z,5.10
2023-03-11T20:05:56.771Z,4.47
2023-03-11T20:08:25.148Z,4.55
2023-03-11T20:10:52.898Z,5.45
2023-03-11T20:13:21.804Z,4.65
2023-03-11T20:15:49.861Z,5.03
2023-03-11T20:18:18.205Z,5.07
2023-03-11T20:20:46.852Z,4.57
2023-03-11T20:23:14.267Z,5.00
2023-03-11T20:25:42.236Z,4.70
2023-03-11T20:28:11.225Z,6.32
2023-03-11T20:30:39.831Z,5.22
2023-03-11T20:33:08.206Z,5.35
2023-03-11T20:35:35.684Z,5.32
2023-03-11T20:38:03.284Z,4.85
2023-03-11T20:40:30.633Z,5.68
2023-03-11T20:42:58.299Z,5.38
2023-03-11T20:45:25.802Z,5.00
2023-03-11T20:47:54.174Z,4.40
2023-03-11T20:50:22.760Z,4.80
2023-03-11T20:52:51.022Z,5.60
2023-03-11T20:55:18.541Z,5.82
2023-03-11T20:57:45.993Z,6.72
2023-03-11T21:00:14.305Z,5.30
2023-03-11T21:02:43.056Z,5.57
2023-03-11T21:05:11.677Z,4.95
2023-03-11T21:07:39.255Z,4.68
2023-03-11T21:10:08.524Z,5.28
2023-03-11T21:12:36.064Z,5.05
2023-03-11T21:15:03.974Z,4.82
2023-03-11T21:17:33.719Z,5.18
2023-03-11T21:20:05.721Z,4.15
2023-03-11T21:22:33.782Z,4.72
2023-03-11T21:25:01.109Z,5.63
2023-03-11T21:27:28.421Z,5.47
2023-03-11T21:29:56.266Z,5.80
2023-03-11T21:32:24.148Z,6.93
2023-03-11T21:34:51.865Z,6.03
2023-03-11T21:37:19.145Z,5.63
2023-03-11T21:39:46.452Z,5.55
2023-03-11T21:42:14.402Z,4.78
2023-03-11T21:44:42.291Z,4.65
2023-03-11T21:47:09.807Z,5.03
2023-03-11T21:49:37.230Z,4.95
2023-03-11T21:52:04.712Z,5.93
2023-03-11T21:54:32.161Z,5.68
2023-03-11T21:56:59.652Z,5.60
2023-03-11T21:59:27.270Z,5.80
2023-03-11T22:01:54.853Z,6.88
2023-03-11T22:04:22.485Z,5.32
2023-03-11T22:06:50.101Z,5.18
2023-03-11T22:09:17.480Z,4.97
2023-03-11T22:11:44.974Z,4.55
2023-03-11T22:14:12.392Z,4.93
2023-03-11T22:16:39.879Z,5.40
2023-03-11T22:19:08.956Z,5.60
2023-03-11T22:21:36.321Z,6.13
2023-03-11T22:24:03.685Z,4.82
2023-03-11T22:26:31.127Z,5.70
2023-03-11T22:28:58.591Z,5.45
2023-03-11T22:31:26.107Z,6.13
2023-03-11T22:33:53.470Z,6.50
2023-03-11T22:36:20.726Z,5.30
2023-03-11T22:38:48.001Z,5.30
2023-03-11T22:41:19.429Z,5.20
2023-03-11T22:43:47.463Z,4.95
2023-03-11T22:46:14.808Z,5.65
2023-03-11T22:48:42.407Z,5.20
2023-03-11T22:51:09.627Z,4.78
2023-03-11T22:53:36.910Z,6.00
2023-03-11T22:56:11.583Z,5.18
2023-03-11T22:58:39.015Z,5.68
2023-03-11T23:01:06.848Z,7.05
2023-03-11T23:03:34.722Z,8.15
2023-03-11T23:06:02.860Z,8.18
2023-03-11T23:08:30.367Z,7.45
2023-03-11T23:10:57.698Z,8.10
2023-03-11T23:13:26.834Z,7.20
2023-03-11T23:15:54.051Z,7.57
2023-03-11T23:18:21.359Z,5.97
2023-03-11T23:20:48.694Z,6.22
2023-03-11T23:23:15.940Z,6.90
2023-03-11T23:25:43.192Z,9.20
2023-03-11T23:28:10.427Z,9.05
2023-03-11T23:30:37.669Z,9.10
2023-03-11T23:33:04.957Z,8.52
2023-03-11T23:35:32.443Z,8.20
2023-03-11T23:37:59.874Z,9.90
2023-03-11T23:40:27.218Z,8.93
2023-03-11T23:42:54.587Z,8.75
2023-03-11T23:45:21.883Z,9.07
2023-03-11T23:47:49.146Z,7.82
2023-03-11T23:50:16.709Z,7.80
2023-03-11T23:52:44.313Z,7.82
2023-03-11T23:55:11.831Z,9.02
2023-03-11T23:57:39.153Z,9.20
